Riviere-Bleue, Canada
Current Conditions -  °F | °C
As of 7:53 AM on Sunday 23 Nov 2014 (Local Time) from KFVE Reporting Station
Overcast Overcast  
Wind Chill: 23°   Ceiling: 4500
Heat Index: 31°   Visibility: 10mi
Dew Point: 28°   Wind: 9mph
Humidity: 89%   Direction: 250°WSW
Pressure: 29.88"   Gusts: NA
Location:  47.43°N, 69.03°W
Report Text: KFVE 231253Z AUTO 25008KT 10SM OVC045 M01/M02 A2988 RMK AO2 SLP128 T10061022
Loading
Personal Weather Stations






























Interactive Weather Map New forecast layout! Learn more

10-Day Weather Forecast

Advertisements
Track Severe Weather on mobile